Overview Statistics Trail Chart Weather Telemetry Raw packets
 

This is the latest recevied weather packets stored in our database for station/object EA5JMY-10. If no packets are shown the sender has not sent any weather packets the latest 10 day(s).

<< 5 6 7 8 9 10 11 >>
Time Temp. Humidity Pressure Rain* Wind** Luminosity Snow
1788471646 28.33° C 70% 1023.5 hPa - - - -
1788470745 28.33° C 70% 1023.4 hPa - - - -
1788469845 28.33° C 70% 1023.5 hPa - - - -
1788468945 28.33° C 71% 1023.4 hPa - - - -
1788468045 28.33° C 72% 1023.3 hPa - - - -
1788467145 28.33° C 72% 1023.3 hPa - - - -
1788466245 28.33° C 72% 1023.2 hPa - - - -
1788465345 28.89° C 71% 1023 hPa - - - -
1788464445 28.89° C 70% 1022.9 hPa - - - -
1788463545 28.89° C 69% 1022.4 hPa - - - -
1788462644 28.89° C 68% 1022.3 hPa - - - -
1788461744 29.44° C 67% 1021.9 hPa - - - -
1788460844 29.44° C 67% 1021.8 hPa - - - -
1788459944 29.44° C 65% 1021.8 hPa - - - -
1788459044 30° C 63% 1021.6 hPa - - - -
1788458144 30° C 64% 1021.6 hPa - - - -
1788457244 30° C 64% 1021.5 hPa - - - -
1788456344 30° C 65% 1021.6 hPa - - - -
1788455443 31.11° C 61% 1021.5 hPa - - - -
1788454543 30.56° C 63% 1021.5 hPa - - - -
1788453643 30.56° C 61% 1021.7 hPa - - - -
1788452743 31.67° C 58% 1021.9 hPa - - - -
1788451843 31.67° C 57% 1022 hPa - - - -
1788450943 31.11° C 59% 1022.1 hPa - - - -
1788450043 32.22° C 55% 1022.4 hPa - - - -

* Rain since midnight (hover to see other rain measurements)
** Current wind speed in m/s (hover to see current wind gust speed)